Aérodrome :
LOGIN :

S'inscrire | Disclaimer

   EN    FR    IT 

 










Légende :    VFR   VFR Marginal   IFR   IFR Intensif   IFR Très Intensif
Visi : 
Plafond : 
>= 8 km
>= 3000ft
5 à 8 km
1000 à 3000 ft
1500m à 5 km
500 à 1000 ft
800 à 1500m
200 à 500 ft
< 800m
< 200 ft
Symboles :   Orages  Brouillard  Fortes neiges  Fortes précipitations  Vent > 20 kt
SIGMETs :   Divers  Orages  Givrage  Turbulence  Onde Orograph.  Cendres Volcan.






- Altitude de l'aérodrome : 2945 ft
- Code IATA : RGS


LEBG - Burgos

DERNIER METAR :
  • 251630Z AUTO 04014KT 9999 OVC024 18/12 Q1027

METARs EXPIRÉS :
  • 251600Z AUTO 04016KT 010V070 9999 OVC025 18/12 Q1027
  • 251530Z AUTO 04017KT 9000 OVC027 19/12 Q1027
  • 251500Z AUTO 04017KT 9999 SCT027 21/13 Q1027
  • 251430Z AUTO 04018KT 9999 FEW028 21/13 Q1027
  • 251400Z AUTO 05018KT 010V070 9999 FEW030 22/13 Q1027

TAF TAF LEBG
Valide du 25 à 15h jusqu'au 26 à 00h UTC


251400Z 2515/2524 05017KT CAVOK



MET'MAP, la Météo Aéronautique d'un coup d'oeil ! - Copyright ORBIFLY Décembre 2007 - Disclaimer

ORBIFLY MET'MAP TEAM :

Programmation & Développement : Alexandra Zaïnal
Sur une idée originale de : Baudouin d'Aumeries
Assistance à la programmation : Marc-Olivier Méhu
Soutien technique & logistique : Manuel Goepfert

Contact : metmap@orbifly.com




SOURCES & CREDITS :

   NOAA